sensor_id;sensor_type;location;lat;lon;timestamp;temperature;humidity
2855;DHT22;1435;49.472;10.940;2023-07-28T00:01:35;18.30;99.90
2855;DHT22;1435;49.472;10.940;2023-07-28T00:06:37;18.30;99.90
2855;DHT22;1435;49.472;10.940;2023-07-28T00:11:39;18.30;99.90
2855;DHT22;1435;49.472;10.940;2023-07-28T00:16:42;18.30;99.90
2855;DHT22;1435;49.472;10.940;2023-07-28T00:21:44;18.30;99.90
2855;DHT22;1435;49.472;10.940;2023-07-28T00:26:45;18.40;99.90
2855;DHT22;1435;49.472;10.940;2023-07-28T00:31:48;18.40;99.90
2855;DHT22;1435;49.472;10.940;2023-07-28T00:36:50;18.40;99.90
2855;DHT22;1435;49.472;10.940;2023-07-28T00:41:52;18.30;99.90
2855;DHT22;1435;49.472;10.940;2023-07-28T00:46:55;18.40;99.90
2855;DHT22;1435;49.472;10.940;2023-07-28T00:51:57;18.30;99.90
2855;DHT22;1435;49.472;10.940;2023-07-28T00:56:59;18.30;99.90
2855;DHT22;1435;49.472;10.940;2023-07-28T01:02:03;18.30;99.90
2855;DHT22;1435;49.472;10.940;2023-07-28T01:07:10;18.20;99.90
2855;DHT22;1435;49.472;10.940;2023-07-28T01:12:12;18.30;99.90
2855;DHT22;1435;49.472;10.940;2023-07-28T01:17:15;18.30;99.90
2855;DHT22;1435;49.472;10.940;2023-07-28T01:27:52;18.30;99.90
2855;DHT22;1435;49.472;10.940;2023-07-28T01:32:55;18.30;99.90
2855;DHT22;1435;49.472;10.940;2023-07-28T01:37:57;18.30;99.90
2855;DHT22;1435;49.472;10.940;2023-07-28T01:43:00;18.30;99.90
2855;DHT22;1435;49.472;10.940;2023-07-28T01:48:02;18.30;99.90
2855;DHT22;1435;49.472;10.940;2023-07-28T01:53:04;18.30;99.90
2855;DHT22;1435;49.472;10.940;2023-07-28T01:58:08;18.30;99.90
2855;DHT22;1435;49.472;10.940;2023-07-28T02:03:09;18.30;99.90
2855;DHT22;1435;49.472;10.940;2023-07-28T02:08:11;18.20;99.90
2855;DHT22;1435;49.472;10.940;2023-07-28T02:13:14;18.20;99.90
2855;DHT22;1435;49.472;10.940;2023-07-28T02:18:16;18.20;99.90
2855;DHT22;1435;49.472;10.940;2023-07-28T02:23:17;18.30;99.90
2855;DHT22;1435;49.472;10.940;2023-07-28T02:28:21;18.20;99.90
2855;DHT22;1435;49.472;10.940;2023-07-28T02:33:23;18.20;99.90
2855;DHT22;1435;49.472;10.940;2023-07-28T02:38:25;18.20;99.90
2855;DHT22;1435;49.472;10.940;2023-07-28T02:43:28;18.30;99.90
2855;DHT22;1435;49.472;10.940;2023-07-28T02:48:29;18.20;99.90
2855;DHT22;1435;49.472;10.940;2023-07-28T02:53:31;18.30;99.90
2855;DHT22;1435;49.472;10.940;2023-07-28T02:58:34;18.30;99.90
2855;DHT22;1435;49.472;10.940;2023-07-28T03:03:36;18.30;99.90
2855;DHT22;1435;49.472;10.940;2023-07-28T03:08:38;18.20;99.90
2855;DHT22;1435;49.472;10.940;2023-07-28T03:13:41;18.20;99.90
2855;DHT22;1435;49.472;10.940;2023-07-28T03:18:42;18.20;99.90
2855;DHT22;1435;49.472;10.940;2023-07-28T03:23:44;18.30;99.90
2855;DHT22;1435;49.472;10.940;2023-07-28T03:28:47;18.30;99.90
2855;DHT22;1435;49.472;10.940;2023-07-28T03:33:49;18.30;99.90
2855;DHT22;1435;49.472;10.940;2023-07-28T03:38:51;18.30;99.90
2855;DHT22;1435;49.472;10.940;2023-07-28T03:43:54;18.30;99.90
2855;DHT22;1435;49.472;10.940;2023-07-28T03:48:56;18.30;99.90
2855;DHT22;1435;49.472;10.940;2023-07-28T03:53:59;18.30;99.90
2855;DHT22;1435;49.472;10.940;2023-07-28T03:59:02;18.30;99.90
2855;DHT22;1435;49.472;10.940;2023-07-28T04:04:03;18.30;99.90
2855;DHT22;1435;49.472;10.940;2023-07-28T04:09:05;18.30;99.90
2855;DHT22;1435;49.472;10.940;2023-07-28T04:14:08;18.30;99.90
2855;DHT22;1435;49.472;10.940;2023-07-28T04:19:10;18.30;99.90
2855;DHT22;1435;49.472;10.940;2023-07-28T04:24:12;18.30;99.90
2855;DHT22;1435;49.472;10.940;2023-07-28T04:29:15;18.30;99.90
2855;DHT22;1435;49.472;10.940;2023-07-28T04:34:17;18.30;99.90
2855;DHT22;1435;49.472;10.940;2023-07-28T04:39:18;18.30;99.90
2855;DHT22;1435;49.472;10.940;2023-07-28T04:44:21;18.30;99.90
2855;DHT22;1435;49.472;10.940;2023-07-28T04:49:23;18.30;99.90
2855;DHT22;1435;49.472;10.940;2023-07-28T04:54:25;18.30;99.90
2855;DHT22;1435;49.472;10.940;2023-07-28T04:59:28;18.30;99.90
2855;DHT22;1435;49.472;10.940;2023-07-28T05:04:29;18.40;99.90
2855;DHT22;1435;49.472;10.940;2023-07-28T05:09:31;18.40;99.90
2855;DHT22;1435;49.472;10.940;2023-07-28T05:14:34;18.30;99.90
2855;DHT22;1435;49.472;10.940;2023-07-28T05:19:36;18.40;99.90
2855;DHT22;1435;49.472;10.940;2023-07-28T05:24:38;18.40;99.90
2855;DHT22;1435;49.472;10.940;2023-07-28T05:29:41;18.40;99.90
2855;DHT22;1435;49.472;10.940;2023-07-28T05:34:43;18.40;99.90
2855;DHT22;1435;49.472;10.940;2023-07-28T05:39:45;18.40;99.90
2855;DHT22;1435;49.472;10.940;2023-07-28T05:44:48;18.40;99.90
2855;DHT22;1435;49.472;10.940;2023-07-28T05:49:49;18.40;99.90
2855;DHT22;1435;49.472;10.940;2023-07-28T05:54:54;18.50;99.90
2855;DHT22;1435;49.472;10.940;2023-07-28T05:59:57;18.40;99.90
2855;DHT22;1435;49.472;10.940;2023-07-28T06:04:59;18.40;99.90
2855;DHT22;1435;49.472;10.940;2023-07-28T06:10:00;18.40;99.90
2855;DHT22;1435;49.472;10.940;2023-07-28T06:15:04;18.50;99.90
2855;DHT22;1435;49.472;10.940;2023-07-28T06:20:07;18.40;99.90
2855;DHT22;1435;49.472;10.940;2023-07-28T06:25:10;18.40;99.90
2855;DHT22;1435;49.472;10.940;2023-07-28T06:30:13;18.50;99.90
2855;DHT22;1435;49.472;10.940;2023-07-28T06:35:15;18.50;99.90
2855;DHT22;1435;49.472;10.940;2023-07-28T06:40:17;18.60;99.90
2855;DHT22;1435;49.472;10.940;2023-07-28T06:45:21;18.50;99.90
2855;DHT22;1435;49.472;10.940;2023-07-28T06:50:22;18.60;99.90
2855;DHT22;1435;49.472;10.940;2023-07-28T06:55:24;18.60;99.90
2855;DHT22;1435;49.472;10.940;2023-07-28T07:00:27;18.60;99.90
2855;DHT22;1435;49.472;10.940;2023-07-28T07:05:29;18.60;99.90
2855;DHT22;1435;49.472;10.940;2023-07-28T07:10:31;18.60;99.90
2855;DHT22;1435;49.472;10.940;2023-07-28T07:15:35;18.50;99.90
2855;DHT22;1435;49.472;10.940;2023-07-28T07:20:37;18.60;99.90
2855;DHT22;1435;49.472;10.940;2023-07-28T07:25:39;18.50;99.90
2855;DHT22;1435;49.472;10.940;2023-07-28T07:30:42;18.60;99.90
2855;DHT22;1435;49.472;10.940;2023-07-28T07:35:44;18.60;99.90
2855;DHT22;1435;49.472;10.940;2023-07-28T07:40:46;18.60;99.90
2855;DHT22;1435;49.472;10.940;2023-07-28T07:45:49;18.70;99.90
2855;DHT22;1435;49.472;10.940;2023-07-28T07:50:54;18.70;99.90
2855;DHT22;1435;49.472;10.940;2023-07-28T07:55:57;18.70;99.90
2855;DHT22;1435;49.472;10.940;2023-07-28T08:01:00;18.80;99.90
2855;DHT22;1435;49.472;10.940;2023-07-28T08:06:02;18.80;99.90
2855;DHT22;1435;49.472;10.940;2023-07-28T08:11:04;18.80;99.90
2855;DHT22;1435;49.472;10.940;2023-07-28T08:16:07;18.90;99.90
2855;DHT22;1435;49.472;10.940;2023-07-28T08:21:09;18.90;99.90
2855;DHT22;1435;49.472;10.940;2023-07-28T08:26:11;18.90;99.90
2855;DHT22;1435;49.472;10.940;2023-07-28T08:31:14;18.90;99.90
2855;DHT22;1435;49.472;10.940;2023-07-28T08:36:16;19.00;99.90
2855;DHT22;1435;49.472;10.940;2023-07-28T08:41:17;19.00;99.90
2855;DHT22;1435;49.472;10.940;2023-07-28T08:46:21;19.10;99.90
2855;DHT22;1435;49.472;10.940;2023-07-28T08:51:23;19.10;99.90
2855;DHT22;1435;49.472;10.940;2023-07-28T08:56:25;19.10;99.90
2855;DHT22;1435;49.472;10.940;2023-07-28T09:01:28;19.20;99.90
2855;DHT22;1435;49.472;10.940;2023-07-28T09:06:30;19.30;99.90
2855;DHT22;1435;49.472;10.940;2023-07-28T09:11:32;19.30;99.90
2855;DHT22;1435;49.472;10.940;2023-07-28T09:16:35;19.40;99.90
2855;DHT22;1435;49.472;10.940;2023-07-28T09:21:38;19.50;99.90
2855;DHT22;1435;49.472;10.940;2023-07-28T09:26:41;19.50;99.90
2855;DHT22;1435;49.472;10.940;2023-07-28T09:31:45;19.60;99.90
2855;DHT22;1435;49.472;10.940;2023-07-28T09:36:47;19.60;99.90
2855;DHT22;1435;49.472;10.940;2023-07-28T09:41:50;19.70;99.90
2855;DHT22;1435;49.472;10.940;2023-07-28T09:46:55;19.70;99.90
2855;DHT22;1435;49.472;10.940;2023-07-28T09:52:04;19.70;99.90
2855;DHT22;1435;49.472;10.940;2023-07-28T09:57:10;19.70;99.90
2855;DHT22;1435;49.472;10.940;2023-07-28T10:02:14;19.80;99.90
2855;DHT22;1435;49.472;10.940;2023-07-28T10:07:17;19.80;99.90
2855;DHT22;1435;49.472;10.940;2023-07-28T10:12:23;19.80;99.90
2855;DHT22;1435;49.472;10.940;2023-07-28T10:17:31;19.80;99.90
2855;DHT22;1435;49.472;10.940;2023-07-28T10:22:31;19.90;99.90
2855;DHT22;1435;49.472;10.940;2023-07-28T10:27:36;19.80;99.90
2855;DHT22;1435;49.472;10.940;2023-07-28T10:32:41;19.80;99.90
2855;DHT22;1435;49.472;10.940;2023-07-28T10:37:44;19.90;99.90
2855;DHT22;1435;49.472;10.940;2023-07-28T10:42:46;19.80;99.90
2855;DHT22;1435;49.472;10.940;2023-07-28T10:47:49;20.00;99.90
2855;DHT22;1435;49.472;10.940;2023-07-28T10:52:51;20.00;99.90
2855;DHT22;1435;49.472;10.940;2023-07-28T10:57:54;20.10;99.90
2855;DHT22;1435;49.472;10.940;2023-07-28T11:03:00;20.20;99.90
2855;DHT22;1435;49.472;10.940;2023-07-28T11:08:02;20.30;99.90
2855;DHT22;1435;49.472;10.940;2023-07-28T11:13:07;20.40;99.90
2855;DHT22;1435;49.472;10.940;2023-07-28T11:18:10;20.50;99.90
2855;DHT22;1435;49.472;10.940;2023-07-28T11:23:14;20.60;99.90
2855;DHT22;1435;49.472;10.940;2023-07-28T11:28:16;20.70;99.90
2855;DHT22;1435;49.472;10.940;2023-07-28T11:33:22;20.80;99.90
2855;DHT22;1435;49.472;10.940;2023-07-28T11:38:23;20.80;99.90
2855;DHT22;1435;49.472;10.940;2023-07-28T11:43:26;20.90;99.90
2855;DHT22;1435;49.472;10.940;2023-07-28T11:48:31;20.90;99.90
2855;DHT22;1435;49.472;10.940;2023-07-28T11:53:33;20.90;99.90
2855;DHT22;1435;49.472;10.940;2023-07-28T11:58:35;21.00;99.90
2855;DHT22;1435;49.472;10.940;2023-07-28T12:03:38;21.10;99.90
2855;DHT22;1435;49.472;10.940;2023-07-28T12:08:41;21.20;99.90
2855;DHT22;1435;49.472;10.940;2023-07-28T12:13:50;21.20;99.90
2855;DHT22;1435;49.472;10.940;2023-07-28T12:18:57;21.20;99.90
2855;DHT22;1435;49.472;10.940;2023-07-28T12:23:59;21.30;99.90
2855;DHT22;1435;49.472;10.940;2023-07-28T12:29:01;21.40;99.90
2855;DHT22;1435;49.472;10.940;2023-07-28T12:34:04;21.40;99.90
2855;DHT22;1435;49.472;10.940;2023-07-28T12:39:06;21.50;99.90
2855;DHT22;1435;49.472;10.940;2023-07-28T12:44:08;21.50;99.90
2855;DHT22;1435;49.472;10.940;2023-07-28T12:49:11;21.50;99.90
2855;DHT22;1435;49.472;10.940;2023-07-28T12:54:13;21.60;99.90
2855;DHT22;1435;49.472;10.940;2023-07-28T12:59:15;21.60;99.90
2855;DHT22;1435;49.472;10.940;2023-07-28T13:04:18;21.70;99.90
2855;DHT22;1435;49.472;10.940;2023-07-28T13:09:20;21.70;99.90
2855;DHT22;1435;49.472;10.940;2023-07-28T13:14:22;21.70;99.90
2855;DHT22;1435;49.472;10.940;2023-07-28T13:19:25;21.70;99.90
2855;DHT22;1435;49.472;10.940;2023-07-28T13:24:27;21.70;99.90
2855;DHT22;1435;49.472;10.940;2023-07-28T13:29:28;21.70;99.90
2855;DHT22;1435;49.472;10.940;2023-07-28T13:34:31;21.60;99.90
2855;DHT22;1435;49.472;10.940;2023-07-28T13:39:33;21.60;99.90
2855;DHT22;1435;49.472;10.940;2023-07-28T13:44:35;21.60;99.90
2855;DHT22;1435;49.472;10.940;2023-07-28T13:49:38;21.50;99.90
2855;DHT22;1435;49.472;10.940;2023-07-28T13:54:39;21.60;99.90
2855;DHT22;1435;49.472;10.940;2023-07-28T13:59:41;21.70;99.90
2855;DHT22;1435;49.472;10.940;2023-07-28T14:04:44;21.80;99.90
2855;DHT22;1435;49.472;10.940;2023-07-28T14:09:46;21.80;99.90
2855;DHT22;1435;49.472;10.940;2023-07-28T14:14:47;21.90;99.90
2855;DHT22;1435;49.472;10.940;2023-07-28T14:19:51;21.90;99.90
2855;DHT22;1435;49.472;10.940;2023-07-28T14:24:53;22.00;99.90
2855;DHT22;1435;49.472;10.940;2023-07-28T14:29:55;22.00;99.90
2855;DHT22;1435;49.472;10.940;2023-07-28T14:34:58;22.10;99.90
2855;DHT22;1435;49.472;10.940;2023-07-28T14:39:59;22.10;99.90
2855;DHT22;1435;49.472;10.940;2023-07-28T14:45:01;22.20;99.90
2855;DHT22;1435;49.472;10.940;2023-07-28T14:50:05;22.20;99.90
2855;DHT22;1435;49.472;10.940;2023-07-28T14:55:07;22.30;99.90
2855;DHT22;1435;49.472;10.940;2023-07-28T15:00:10;22.30;99.90
2855;DHT22;1435;49.472;10.940;2023-07-28T15:05:13;22.30;99.90
2855;DHT22;1435;49.472;10.940;2023-07-28T15:10:15;22.30;99.90
2855;DHT22;1435;49.472;10.940;2023-07-28T15:15:16;22.30;99.90
2855;DHT22;1435;49.472;10.940;2023-07-28T15:20:20;22.30;99.90
2855;DHT22;1435;49.472;10.940;2023-07-28T15:25:22;22.30;99.90
2855;DHT22;1435;49.472;10.940;2023-07-28T15:30:24;22.30;99.90
2855;DHT22;1435;49.472;10.940;2023-07-28T15:35:27;22.20;99.90
2855;DHT22;1435;49.472;10.940;2023-07-28T15:40:29;22.30;99.90
2855;DHT22;1435;49.472;10.940;2023-07-28T15:45:30;22.30;99.90
2855;DHT22;1435;49.472;10.940;2023-07-28T15:50:34;22.20;99.90
2855;DHT22;1435;49.472;10.940;2023-07-28T15:55:36;22.20;99.90
2855;DHT22;1435;49.472;10.940;2023-07-28T16:00:38;22.10;99.90
2855;DHT22;1435;49.472;10.940;2023-07-28T16:05:41;22.10;99.90
2855;DHT22;1435;49.472;10.940;2023-07-28T16:10:43;22.10;99.90
2855;DHT22;1435;49.472;10.940;2023-07-28T16:15:45;22.10;99.90
2855;DHT22;1435;49.472;10.940;2023-07-28T16:20:48;22.10;99.90
2855;DHT22;1435;49.472;10.940;2023-07-28T16:25:50;22.10;99.90
2855;DHT22;1435;49.472;10.940;2023-07-28T16:30:51;22.10;99.90
2855;DHT22;1435;49.472;10.940;2023-07-28T16:35:54;22.10;99.90
2855;DHT22;1435;49.472;10.940;2023-07-28T16:40:57;22.10;99.90
2855;DHT22;1435;49.472;10.940;2023-07-28T16:45:58;22.10;99.90
2855;DHT22;1435;49.472;10.940;2023-07-28T16:51:01;22.10;99.90
2855;DHT22;1435;49.472;10.940;2023-07-28T16:56:03;22.10;99.90
2855;DHT22;1435;49.472;10.940;2023-07-28T17:01:05;22.10;99.90
2855;DHT22;1435;49.472;10.940;2023-07-28T17:06:08;22.00;99.90
2855;DHT22;1435;49.472;10.940;2023-07-28T17:11:10;22.00;99.90
2855;DHT22;1435;49.472;10.940;2023-07-28T17:16:12;22.00;99.90
2855;DHT22;1435;49.472;10.940;2023-07-28T17:21:15;22.00;99.90
2855;DHT22;1435;49.472;10.940;2023-07-28T17:26:17;21.90;99.90
2855;DHT22;1435;49.472;10.940;2023-07-28T17:31:19;21.80;99.90
2855;DHT22;1435;49.472;10.940;2023-07-28T17:36:22;21.70;99.90
2855;DHT22;1435;49.472;10.940;2023-07-28T17:41:24;21.70;99.90
2855;DHT22;1435;49.472;10.940;2023-07-28T17:46:25;21.60;99.90
2855;DHT22;1435;49.472;10.940;2023-07-28T17:51:28;21.60;99.90
2855;DHT22;1435;49.472;10.940;2023-07-28T17:56:30;21.50;99.90
2855;DHT22;1435;49.472;10.940;2023-07-28T18:01:32;21.40;99.90
2855;DHT22;1435;49.472;10.940;2023-07-28T18:06:35;21.40;99.90
2855;DHT22;1435;49.472;10.940;2023-07-28T18:11:36;21.40;99.90
2855;DHT22;1435;49.472;10.940;2023-07-28T18:16:38;21.30;99.90
2855;DHT22;1435;49.472;10.940;2023-07-28T18:21:41;21.20;99.90
2855;DHT22;1435;49.472;10.940;2023-07-28T18:26:43;21.30;99.90
2855;DHT22;1435;49.472;10.940;2023-07-28T18:31:44;21.20;99.90
2855;DHT22;1435;49.472;10.940;2023-07-28T18:36:47;21.20;99.90
2855;DHT22;1435;49.472;10.940;2023-07-28T18:41:52;21.20;99.90
2855;DHT22;1435;49.472;10.940;2023-07-28T18:46:54;21.20;99.90
2855;DHT22;1435;49.472;10.940;2023-07-28T18:51:57;21.10;99.90
2855;DHT22;1435;49.472;10.940;2023-07-28T18:56:59;21.10;99.90
2855;DHT22;1435;49.472;10.940;2023-07-28T19:02:00;21.10;99.90
2855;DHT22;1435;49.472;10.940;2023-07-28T19:07:04;21.00;99.90
2855;DHT22;1435;49.472;10.940;2023-07-28T19:12:06;21.10;99.90
2855;DHT22;1435;49.472;10.940;2023-07-28T19:17:08;21.00;99.90
2855;DHT22;1435;49.472;10.940;2023-07-28T19:22:11;21.00;99.90
2855;DHT22;1435;49.472;10.940;2023-07-28T19:27:14;21.00;99.90
2855;DHT22;1435;49.472;10.940;2023-07-28T19:32:16;20.90;99.90
2855;DHT22;1435;49.472;10.940;2023-07-28T19:37:19;20.90;99.90
2855;DHT22;1435;49.472;10.940;2023-07-28T19:42:21;20.90;99.90
2855;DHT22;1435;49.472;10.940;2023-07-28T19:47:22;20.80;99.90
2855;DHT22;1435;49.472;10.940;2023-07-28T19:52:25;20.50;99.90
2855;DHT22;1435;49.472;10.940;2023-07-28T19:57:27;20.60;99.90
2855;DHT22;1435;49.472;10.940;2023-07-28T20:02:29;20.70;99.90
2855;DHT22;1435;49.472;10.940;2023-07-28T20:07:32;20.60;99.90
2855;DHT22;1435;49.472;10.940;2023-07-28T20:12:33;20.60;99.90
2855;DHT22;1435;49.472;10.940;2023-07-28T20:17:35;20.50;99.90
2855;DHT22;1435;49.472;10.940;2023-07-28T20:22:38;20.50;99.90
2855;DHT22;1435;49.472;10.940;2023-07-28T20:27:43;20.50;99.90
2855;DHT22;1435;49.472;10.940;2023-07-28T20:32:45;20.50;99.90
2855;DHT22;1435;49.472;10.940;2023-07-28T20:37:48;20.50;99.90
2855;DHT22;1435;49.472;10.940;2023-07-28T20:42:50;20.50;99.90
2855;DHT22;1435;49.472;10.940;2023-07-28T20:47:52;20.50;99.90
2855;DHT22;1435;49.472;10.940;2023-07-28T20:52:55;20.40;99.90
2855;DHT22;1435;49.472;10.940;2023-07-28T20:57:57;20.40;99.90
2855;DHT22;1435;49.472;10.940;2023-07-28T21:03:01;20.40;99.90
2855;DHT22;1435;49.472;10.940;2023-07-28T21:08:05;20.40;99.90
2855;DHT22;1435;49.472;10.940;2023-07-28T21:13:06;20.40;99.90
2855;DHT22;1435;49.472;10.940;2023-07-28T21:18:08;20.40;99.90
2855;DHT22;1435;49.472;10.940;2023-07-28T21:23:12;20.40;99.90
2855;DHT22;1435;49.472;10.940;2023-07-28T21:28:14;20.40;99.90
2855;DHT22;1435;49.472;10.940;2023-07-28T21:33:15;20.40;99.90
2855;DHT22;1435;49.472;10.940;2023-07-28T21:38:18;20.40;99.90
2855;DHT22;1435;49.472;10.940;2023-07-28T21:43:20;20.40;99.90
2855;DHT22;1435;49.472;10.940;2023-07-28T21:48:22;20.40;99.90
2855;DHT22;1435;49.472;10.940;2023-07-28T21:53:25;20.40;99.90
2855;DHT22;1435;49.472;10.940;2023-07-28T21:58:27;20.30;99.90
2855;DHT22;1435;49.472;10.940;2023-07-28T22:03:28;20.30;99.90
2855;DHT22;1435;49.472;10.940;2023-07-28T22:08:32;20.30;99.90
2855;DHT22;1435;49.472;10.940;2023-07-28T22:13:33;20.30;99.90
2855;DHT22;1435;49.472;10.940;2023-07-28T22:18:35;20.20;99.90
2855;DHT22;1435;49.472;10.940;2023-07-28T22:23:38;20.20;99.90
2855;DHT22;1435;49.472;10.940;2023-07-28T22:28:40;20.10;99.90
2855;DHT22;1435;49.472;10.940;2023-07-28T22:33:42;20.20;99.90
2855;DHT22;1435;49.472;10.940;2023-07-28T22:38:45;20.20;99.90
2855;DHT22;1435;49.472;10.940;2023-07-28T22:43:46;20.10;99.90
2855;DHT22;1435;49.472;10.940;2023-07-28T22:48:48;20.10;99.90
2855;DHT22;1435;49.472;10.940;2023-07-28T22:53:51;20.10;99.90
2855;DHT22;1435;49.472;10.940;2023-07-28T22:58:53;20.00;99.90
2855;DHT22;1435;49.472;10.940;2023-07-28T23:03:55;20.00;99.90
2855;DHT22;1435;49.472;10.940;2023-07-28T23:08:58;20.00;99.90
2855;DHT22;1435;49.472;10.940;2023-07-28T23:14:00;20.00;99.90
2855;DHT22;1435;49.472;10.940;2023-07-28T23:19:01;19.90;99.90
2855;DHT22;1435;49.472;10.940;2023-07-28T23:24:05;19.90;99.90
2855;DHT22;1435;49.472;10.940;2023-07-28T23:29:07;19.90;99.90
2855;DHT22;1435;49.472;10.940;2023-07-28T23:34:08;19.80;99.90
2855;DHT22;1435;49.472;10.940;2023-07-28T23:39:11;19.80;99.90
2855;DHT22;1435;49.472;10.940;2023-07-28T23:44:13;19.80;99.90
2855;DHT22;1435;49.472;10.940;2023-07-28T23:49:15;19.80;99.90
2855;DHT22;1435;49.472;10.940;2023-07-28T23:54:18;19.70;99.90
2855;DHT22;1435;49.472;10.940;2023-07-28T23:59:20;19.70;99.90
